createdAt,value
2019-04-16T00:01:37.284Z,99394.23
2019-04-16T00:02:51.254Z,99392.53
2019-04-16T00:04:07.008Z,99395.36
2019-04-16T00:05:19.980Z,99389.58
2019-04-16T00:06:41.926Z,99389.69
2019-04-16T00:07:54.503Z,99395.47
2019-04-16T00:09:16.367Z,99388.57
2019-04-16T00:10:25.965Z,99395.30
2019-04-16T00:11:47.495Z,99386.30
2019-04-16T00:13:04.014Z,99384.41
2019-04-16T00:14:26.011Z,99385.47
2019-04-16T00:15:34.305Z,99389.73
2019-04-16T00:16:44.550Z,99386.54
2019-04-16T00:17:52.188Z,99385.76
2019-04-16T00:19:04.141Z,99391.06
2019-04-16T00:20:10.620Z,99386.34
2019-04-16T00:21:33.098Z,99386.34
2019-04-16T00:22:43.026Z,99391.74
2019-04-16T00:24:08.771Z,99393.91
2019-04-16T00:25:16.830Z,99385.86
2019-04-16T00:26:26.810Z,99385.02
2019-04-16T00:27:34.807Z,99379.34
2019-04-16T00:28:42.725Z,99390.52
2019-04-16T00:29:51.412Z,99390.59
2019-04-16T00:30:59.464Z,99385.29
2019-04-16T00:32:09.730Z,99380.47
2019-04-16T00:33:17.824Z,99385.87
2019-04-16T00:34:26.146Z,99383.32
2019-04-16T00:35:34.457Z,99385.22
2019-04-16T00:37:01.622Z,99389.20
2019-04-16T00:38:10.072Z,99386.92
2019-04-16T00:39:17.952Z,99386.14
2019-04-16T00:40:27.182Z,99388.80
2019-04-16T00:41:35.433Z,99384.45
2019-04-16T00:42:43.441Z,99387.57
2019-04-16T00:43:51.195Z,99381.05
2019-04-16T00:44:59.165Z,99379.34
2019-04-16T00:46:08.485Z,99383.80
2019-04-16T00:47:16.891Z,99380.78
2019-04-16T00:48:25.874Z,99383.80
2019-04-16T00:49:34.148Z,99381.25
2019-04-16T00:50:42.278Z,99382.65
2019-04-16T00:51:50.253Z,99379.35
2019-04-16T00:52:58.297Z,99383.50
2019-04-16T00:54:09.906Z,99378.98
2019-04-16T00:55:16.180Z,99386.63
2019-04-16T00:56:24.227Z,99385.60
2019-04-16T00:57:32.356Z,99385.30
2019-04-16T00:58:40.200Z,99390.59
2019-04-16T00:59:48.563Z,99388.42
2019-04-16T01:00:56.561Z,99386.34
2019-04-16T01:02:04.791Z,99392.97
2019-04-16T01:03:13.023Z,99392.12
2019-04-16T01:04:21.286Z,99389.95
2019-04-16T01:05:29.419Z,99383.33
2019-04-16T01:06:37.902Z,99387.30
2019-04-16T01:07:47.400Z,99384.37
2019-04-16T01:08:55.704Z,99386.55
2019-04-16T01:10:03.882Z,99382.27
2019-04-16T01:11:12.096Z,99382.47
2019-04-16T01:12:20.363Z,99386.92
2019-04-16T01:13:28.342Z,99377.65
2019-04-16T01:14:36.185Z,99389.19
2019-04-16T01:15:44.266Z,99387.02
2019-04-16T01:17:04.079Z,99379.92
2019-04-16T01:18:10.912Z,99381.41
2019-04-16T01:19:18.971Z,99388.39
2019-04-16T01:20:27.403Z,99380.28
2019-04-16T01:21:35.611Z,99382.72
2019-04-16T01:22:46.566Z,99381.39
2019-04-16T01:23:53.742Z,99383.19
2019-04-16T01:25:02.147Z,99387.26
2019-04-16T01:26:10.262Z,99384.81
2019-04-16T01:27:19.944Z,99384.97
2019-04-16T01:28:35.578Z,99388.84
2019-04-16T01:29:43.472Z,99384.88
2019-04-16T01:31:18.697Z,99385.72
2019-04-16T01:32:29.144Z,99382.60
2019-04-16T01:33:54.847Z,99388.84
2019-04-16T01:35:23.117Z,99393.29
2019-04-16T01:36:35.398Z,99385.92
2019-04-16T01:37:45.003Z,99388.20
2019-04-16T01:39:15.183Z,99388.77
2019-04-16T01:40:12.216Z,99389.30
2019-04-16T01:41:22.571Z,99389.88
2019-04-16T01:42:31.153Z,99386.00
2019-04-16T01:43:39.860Z,99386.17
2019-04-16T01:44:48.118Z,99385.79
2019-04-16T01:46:00.729Z,99388.53
2019-04-16T01:47:06.984Z,99389.11
2019-04-16T01:48:14.927Z,99387.19
2019-04-16T01:49:22.950Z,99391.35
2019-04-16T01:50:31.197Z,99390.19
2019-04-16T01:51:39.395Z,99389.24
2019-04-16T01:52:50.295Z,99389.81
2019-04-16T01:53:57.163Z,99396.15
2019-04-16T01:55:06.209Z,99388.75
2019-04-16T01:56:14.469Z,99392.66
2019-04-16T01:57:22.409Z,99388.69
2019-04-16T01:58:33.538Z,99392.55
2019-04-16T01:59:40.139Z,99398.23
2019-04-16T02:00:48.184Z,99389.06
2019-04-16T02:01:56.386Z,99391.70
2019-04-16T02:03:04.470Z,99395.30
2019-04-16T02:04:12.570Z,99387.73
2019-04-16T02:05:23.136Z,99393.88
2019-04-16T02:06:30.204Z,99391.70
2019-04-16T02:07:38.194Z,99393.98
2019-04-16T02:08:46.007Z,99391.80
2019-04-16T02:09:55.832Z,99396.15
2019-04-16T02:11:03.995Z,99396.63
2019-04-16T02:12:13.240Z,99392.24
2019-04-16T02:13:21.809Z,99391.87
2019-04-16T02:14:30.266Z,99389.51
2019-04-16T02:15:38.728Z,99389.98
2019-04-16T02:16:46.797Z,99390.52
2019-04-16T02:17:55.421Z,99389.66
2019-04-16T02:19:05.012Z,99388.34
2019-04-16T02:20:13.464Z,99389.38
2019-04-16T02:21:22.036Z,99386.84
2019-04-16T02:22:30.112Z,99386.45
2019-04-16T02:23:38.210Z,99386.84
2019-04-16T02:24:47.840Z,99385.61
2019-04-16T02:25:56.758Z,99384.66
2019-04-16T02:27:04.753Z,99382.48
2019-04-16T02:28:13.054Z,99386.93
2019-04-16T02:29:21.297Z,99387.31
2019-04-16T02:30:29.452Z,99391.27
2019-04-16T02:31:37.664Z,99388.63
2019-04-16T02:32:45.767Z,99389.10
2019-04-16T02:33:53.848Z,99381.64
2019-04-16T02:35:01.772Z,99385.20
2019-04-16T02:36:10.038Z,99389.64
2019-04-16T02:37:18.233Z,99387.38
2019-04-16T02:38:26.453Z,99393.13
2019-04-16T02:39:49.294Z,99388.70
2019-04-16T02:40:54.789Z,99391.27
2019-04-16T02:42:03.028Z,99385.20
2019-04-16T02:43:11.417Z,99385.67
2019-04-16T02:44:19.530Z,99386.61
2019-04-16T02:45:28.263Z,99387.56
2019-04-16T02:46:36.370Z,99381.42
2019-04-16T02:47:44.504Z,99384.13
2019-04-16T02:48:52.559Z,99382.43
2019-04-16T02:50:01.394Z,99380.80
2019-04-16T02:51:10.974Z,99384.37
2019-04-16T02:52:23.267Z,99381.08
2019-04-16T02:53:47.842Z,99378.59
2019-04-16T02:55:13.253Z,99384.91
2019-04-16T02:56:40.901Z,99382.52
2019-04-16T02:58:06.916Z,99384.19
2019-04-16T02:59:16.481Z,99381.44
2019-04-16T03:00:42.409Z,99382.83
2019-04-16T03:01:52.675Z,99386.98
2019-04-16T03:03:12.043Z,99377.03
2019-04-16T03:04:27.064Z,99381.46
2019-04-16T03:05:36.341Z,99381.08
2019-04-16T03:06:44.657Z,99381.73
2019-04-16T03:07:52.910Z,99382.69
2019-04-16T03:09:00.875Z,99383.40
2019-04-16T03:10:12.268Z,99382.27
2019-04-16T03:11:19.398Z,99380.15
2019-04-16T03:12:27.513Z,99380.24
2019-04-16T03:13:35.711Z,99385.62
2019-04-16T03:14:44.102Z,99381.27
2019-04-16T03:16:10.287Z,99382.59
2019-04-16T03:17:28.775Z,99379.10
2019-04-16T03:18:38.843Z,99377.45
2019-04-16T03:19:51.387Z,99375.37
2019-04-16T03:20:58.979Z,99377.93
2019-04-16T03:22:07.429Z,99381.42
2019-04-16T03:23:15.507Z,99378.41
2019-04-16T03:24:24.133Z,99377.08
2019-04-16T03:25:32.153Z,99377.64
2019-04-16T03:26:40.223Z,99379.44
2019-04-16T03:27:48.278Z,99380.76
2019-04-16T03:28:59.101Z,99377.73
2019-04-16T03:30:08.365Z,99377.80
2019-04-16T03:31:22.208Z,99378.16
2019-04-16T03:32:33.467Z,99386.23
2019-04-16T03:33:35.926Z,99386.64
2019-04-16T03:34:43.949Z,99383.80
2019-04-16T03:35:51.957Z,99381.69
2019-04-16T03:37:01.933Z,99383.09
2019-04-16T03:38:10.125Z,99380.08
2019-04-16T03:39:18.383Z,99381.55
2019-04-16T03:40:26.506Z,99382.02
2019-04-16T03:41:34.749Z,99383.33
2019-04-16T03:42:43.024Z,99379.93
2019-04-16T03:43:50.939Z,99379.88
2019-04-16T03:44:58.991Z,99378.08
2019-04-16T03:46:12.074Z,99382.13
2019-04-16T03:47:19.975Z,99376.85
2019-04-16T03:48:28.179Z,99378.17
2019-04-16T03:49:36.388Z,99378.73
2019-04-16T03:50:44.463Z,99379.20
2019-04-16T03:51:52.550Z,99377.88
2019-04-16T03:53:00.630Z,99383.07
2019-04-16T03:54:08.553Z,99376.94
2019-04-16T03:55:16.729Z,99381.84
2019-04-16T03:56:27.594Z,99384.06
2019-04-16T03:57:34.791Z,99390.28
2019-04-16T03:58:43.065Z,99384.23
2019-04-16T03:59:51.061Z,99383.09
2019-04-16T04:00:59.398Z,99386.26
2019-04-16T04:02:07.498Z,99385.88
2019-04-16T04:03:15.681Z,99390.78
2019-04-16T04:04:28.984Z,99388.61
2019-04-16T04:05:35.101Z,99398.70
2019-04-16T04:06:43.842Z,99403.35
2019-04-16T04:07:54.994Z,99408.80
2019-04-16T04:09:01.567Z,99409.97
2019-04-16T04:10:10.079Z,99404.53
2019-04-16T04:11:18.200Z,99404.32
2019-04-16T04:12:27.894Z,99406.11
2019-04-16T04:13:36.133Z,99410.16
2019-04-16T04:14:44.365Z,99413.70
2019-04-16T04:15:55.055Z,99401.22
2019-04-16T04:17:05.177Z,99409.14
2019-04-16T04:18:12.870Z,99407.02
2019-04-16T04:19:21.314Z,99416.67
2019-04-16T04:20:29.499Z,99412.30
2019-04-16T04:21:37.607Z,99414.55
2019-04-16T04:22:45.591Z,99408.89
2019-04-16T04:23:53.850Z,99412.85
2019-04-16T04:25:04.365Z,99405.87
2019-04-16T04:26:11.648Z,99415.58
2019-04-16T04:27:19.863Z,99414.26
2019-04-16T04:28:27.808Z,99421.32
2019-04-16T04:29:35.947Z,99423.02
2019-04-16T04:30:44.156Z,99426.98
2019-04-16T04:31:52.070Z,99420.94
2019-04-16T04:33:00.255Z,99427.15
2019-04-16T04:34:10.691Z,99425.41
2019-04-16T04:35:21.751Z,99427.61
2019-04-16T04:36:28.424Z,99432.01
2019-04-16T04:37:36.697Z,99424.98
2019-04-16T04:38:44.603Z,99431.48
2019-04-16T04:39:52.885Z,99431.41
2019-04-16T04:41:01.012Z,99430.94
2019-04-16T04:42:09.027Z,99433.58
2019-04-16T04:43:17.292Z,99429.53
2019-04-16T04:44:25.430Z,99427.28
2019-04-16T04:45:34.704Z,99428.59
2019-04-16T04:46:43.280Z,99434.20
2019-04-16T04:47:52.535Z,99432.80
2019-04-16T04:49:00.867Z,99436.67
2019-04-16T04:50:09.683Z,99430.94
2019-04-16T04:51:17.791Z,99434.42
2019-04-16T04:52:27.415Z,99434.12
2019-04-16T04:53:35.685Z,99435.36
2019-04-16T04:54:44.143Z,99439.02
2019-04-16T04:55:54.451Z,99441.73
2019-04-16T04:57:02.226Z,99438.25
2019-04-16T04:58:10.444Z,99430.25
2019-04-16T04:59:18.648Z,99438.55
2019-04-16T05:00:26.808Z,99440.89
2019-04-16T05:01:35.000Z,99442.20
2019-04-16T05:02:44.334Z,99442.64
2019-04-16T05:03:57.913Z,99442.97
2019-04-16T05:05:10.977Z,99447.41
2019-04-16T05:06:27.910Z,99449.10
2019-04-16T05:07:36.085Z,99454.84
2019-04-16T05:08:44.195Z,99448.72
2019-04-16T05:09:52.407Z,99450.04
2019-04-16T05:11:02.875Z,99456.16
2019-04-16T05:12:10.148Z,99455.23
2019-04-16T05:13:18.237Z,99464.38
2019-04-16T05:14:26.237Z,99459.11
2019-04-16T05:15:34.314Z,99462.13
2019-04-16T05:16:42.599Z,99464.63
2019-04-16T05:17:59.128Z,99468.59
2019-04-16T05:19:07.408Z,99467.48
2019-04-16T05:20:16.449Z,99466.80
2019-04-16T05:21:24.973Z,99466.71
2019-04-16T05:22:33.299Z,99460.88
2019-04-16T05:23:41.483Z,99466.95
2019-04-16T05:24:49.553Z,99469.13
2019-04-16T05:25:57.523Z,99467.25
2019-04-16T05:27:08.610Z,99471.08
2019-04-16T05:28:15.248Z,99462.99
2019-04-16T05:29:23.439Z,99470.36
2019-04-16T05:30:31.587Z,99469.83
2019-04-16T05:31:41.307Z,99463.62
2019-04-16T05:32:49.610Z,99465.23
2019-04-16T05:34:02.093Z,99464.77
2019-04-16T05:35:10.256Z,99467.23
2019-04-16T05:36:20.927Z,99461.05
2019-04-16T05:37:27.629Z,99459.26
2019-04-16T05:38:35.732Z,99464.07
2019-04-16T05:39:43.822Z,99460.02
2019-04-16T05:40:51.720Z,99457.67
2019-04-16T05:42:00.026Z,99462.11
2019-04-16T05:43:08.121Z,99462.19
2019-04-16T05:44:17.603Z,99465.30
2019-04-16T05:45:25.652Z,99463.98
2019-04-16T05:46:33.718Z,99469.18
2019-04-16T05:47:41.860Z,99468.23
2019-04-16T05:48:51.359Z,99462.91
2019-04-16T05:49:59.994Z,99465.45
2019-04-16T05:51:08.337Z,99466.22
2019-04-16T05:52:16.600Z,99462.09
2019-04-16T05:53:25.190Z,99469.02
2019-04-16T05:54:35.790Z,99470.16
2019-04-16T05:55:49.656Z,99476.63
2019-04-16T05:57:00.342Z,99468.14
2019-04-16T05:58:08.443Z,99467.50
2019-04-16T05:59:16.637Z,99479.24
2019-04-16T06:00:42.397Z,99474.72
2019-04-16T06:02:07.038Z,99477.75
2019-04-16T06:03:15.033Z,99479.92
2019-04-16T06:04:24.988Z,99473.70
2019-04-16T06:05:32.870Z,99475.48
2019-04-16T06:06:41.061Z,99471.00
2019-04-16T06:07:49.374Z,99472.61
2019-04-16T06:08:57.758Z,99479.52
2019-04-16T06:10:08.584Z,99476.72
2019-04-16T06:11:28.089Z,99479.75
2019-04-16T06:12:27.888Z,99477.87
2019-04-16T06:13:44.508Z,99473.38
2019-04-16T06:14:57.803Z,99472.81
2019-04-16T06:16:16.625Z,99479.62
2019-04-16T06:17:33.565Z,99475.52
2019-04-16T06:19:00.387Z,99478.92
2019-04-16T06:20:11.456Z,99479.16
2019-04-16T06:21:30.308Z,99475.09
2019-04-16T06:22:38.482Z,99475.30
2019-04-16T06:23:48.950Z,99473.45
2019-04-16T06:25:14.949Z,99469.77
2019-04-16T06:26:30.650Z,99463.39
2019-04-16T06:27:45.918Z,99471.05
2019-04-16T06:29:00.209Z,99465.61
2019-04-16T06:30:10.836Z,99468.36
2019-04-16T06:31:29.374Z,99475.58
2019-04-16T06:32:37.359Z,99481.09
2019-04-16T06:33:47.021Z,99474.30
2019-04-16T06:35:02.820Z,99482.08
2019-04-16T06:36:12.599Z,99479.44
2019-04-16T06:37:26.755Z,99473.99
2019-04-16T06:38:33.770Z,99472.95
2019-04-16T06:39:43.695Z,99472.42
2019-04-16T06:40:56.509Z,99475.27
2019-04-16T06:42:09.474Z,99475.11
2019-04-16T06:43:19.153Z,99470.10
2019-04-16T06:44:30.853Z,99472.02
2019-04-16T06:45:41.435Z,99475.71
2019-04-16T06:46:53.892Z,99476.41
2019-04-16T06:48:06.499Z,99473.57
2019-04-16T06:49:28.051Z,99474.73
2019-04-16T06:50:52.629Z,99482.86
2019-04-16T06:52:18.987Z,99481.86
2019-04-16T06:53:35.670Z,99475.89
2019-04-16T06:54:45.451Z,99481.41
2019-04-16T06:56:08.804Z,99477.15
2019-04-16T06:57:16.941Z,99480.55
2019-04-16T06:58:50.252Z,99475.47
2019-04-16T07:00:02.390Z,99473.11
2019-04-16T07:01:18.116Z,99478.14
2019-04-16T07:02:37.362Z,99477.41
2019-04-16T07:03:59.664Z,99469.64
2019-04-16T07:05:18.045Z,99476.01
2019-04-16T07:06:44.062Z,99475.27
2019-04-16T07:07:57.923Z,99472.33
2019-04-16T07:09:26.343Z,99478.69
2019-04-16T07:10:44.792Z,99484.73
2019-04-16T07:11:54.918Z,99482.30
2019-04-16T07:13:03.143Z,99479.45
2019-04-16T07:14:11.500Z,99482.31
2019-04-16T07:15:24.185Z,99485.98
2019-04-16T07:16:30.445Z,99484.39
2019-04-16T07:17:40.633Z,99486.30
2019-04-16T07:18:48.654Z,99484.40
2019-04-16T07:19:56.693Z,99491.23
2019-04-16T07:21:04.936Z,99489.80
2019-04-16T07:22:13.058Z,99487.80
2019-04-16T07:23:24.241Z,99488.96
2019-04-16T07:24:32.407Z,99484.41
2019-04-16T07:25:43.146Z,99487.27
2019-04-16T07:26:58.285Z,99488.76
2019-04-16T07:28:13.671Z,99492.53
2019-04-16T07:29:32.777Z,99490.08
2019-04-16T07:30:46.887Z,99487.62
2019-04-16T07:31:56.509Z,99486.00
2019-04-16T07:33:06.014Z,99486.67
2019-04-16T07:34:19.642Z,99485.52
2019-04-16T07:35:45.830Z,99485.81
2019-04-16T07:36:56.597Z,99490.81
2019-04-16T07:38:16.544Z,99489.31
2019-04-16T07:39:36.857Z,99485.13
2019-04-16T07:40:59.932Z,99487.60
2019-04-16T07:42:22.818Z,99488.86
2019-04-16T07:43:49.302Z,99490.83
2019-04-16T07:45:15.321Z,99484.86
2019-04-16T07:46:40.857Z,99479.24
2019-04-16T07:47:53.199Z,99483.41
2019-04-16T07:49:07.406Z,99486.27
2019-04-16T07:50:33.480Z,99488.33
2019-04-16T07:51:43.514Z,99488.42
2019-04-16T07:53:05.124Z,99492.67
2019-04-16T07:54:26.946Z,99483.09
2019-04-16T07:55:36.422Z,99487.59
2019-04-16T07:56:45.945Z,99486.83
2019-04-16T07:57:54.150Z,99486.55
2019-04-16T07:59:02.165Z,99494.30
2019-04-16T08:00:11.460Z,99489.25
2019-04-16T08:01:19.452Z,99488.59
2019-04-16T08:02:27.755Z,99491.80
2019-04-16T08:03:36.101Z,99494.61
2019-04-16T08:04:44.206Z,99485.13
2019-04-16T08:05:52.254Z,99492.77
2019-04-16T08:07:00.303Z,99492.10
2019-04-16T08:08:08.371Z,99488.75
2019-04-16T08:09:16.332Z,99487.12
2019-04-16T08:10:24.950Z,99493.36
2019-04-16T08:11:33.110Z,99494.36
2019-04-16T08:12:42.783Z,99497.09
2019-04-16T08:13:51.249Z,99500.00
2019-04-16T08:15:12.455Z,99493.06
2019-04-16T08:16:09.479Z,99487.52
2019-04-16T08:17:17.627Z,99483.34
2019-04-16T08:18:25.475Z,99490.61
2019-04-16T08:19:36.998Z,99485.95
2019-04-16T08:20:43.601Z,99483.92
2019-04-16T08:21:51.662Z,99482.39
2019-04-16T08:23:01.292Z,99480.73
2019-04-16T08:24:10.814Z,99486.33
2019-04-16T08:25:20.378Z,99480.91
2019-04-16T08:26:28.438Z,99475.84
2019-04-16T08:27:36.336Z,99476.13
2019-04-16T08:28:44.429Z,99488.83
2019-04-16T08:29:52.836Z,99477.11
2019-04-16T08:31:01.833Z,99482.72
2019-04-16T08:32:12.923Z,99485.27
2019-04-16T08:33:19.783Z,99478.98
2019-04-16T08:34:28.143Z,99482.01
2019-04-16T08:35:36.308Z,99480.96
2019-04-16T08:36:44.238Z,99473.63
2019-04-16T08:37:52.386Z,99476.55
2019-04-16T08:39:00.115Z,99472.84
2019-04-16T08:40:12.266Z,99480.11
2019-04-16T08:41:21.365Z,99472.30
2019-04-16T08:42:30.816Z,99477.62
2019-04-16T08:43:38.664Z,99487.66
2019-04-16T08:44:46.700Z,99475.09
2019-04-16T08:45:54.682Z,99479.37
2019-04-16T08:47:02.732Z,99473.45
2019-04-16T08:48:16.904Z,99470.55
2019-04-16T08:49:22.477Z,99459.23
2019-04-16T08:50:30.550Z,99459.27
2019-04-16T08:51:38.422Z,99465.20
2019-04-16T08:52:46.785Z,99476.86
2019-04-16T08:53:54.686Z,99471.91
2019-04-16T08:55:02.847Z,99467.80
2019-04-16T08:56:10.898Z,99478.69
2019-04-16T08:57:19.091Z,99468.92
2019-04-16T08:58:27.121Z,99468.20
2019-04-16T08:59:35.136Z,99467.13
2019-04-16T09:00:46.409Z,99471.27
2019-04-16T09:01:55.264Z,99463.17
2019-04-16T09:03:03.398Z,99461.15
2019-04-16T09:04:11.436Z,99461.39
2019-04-16T09:05:19.518Z,99464.91
2019-04-16T09:06:27.466Z,99462.97
2019-04-16T09:07:42.109Z,99474.38
2019-04-16T09:09:12.824Z,99462.77
2019-04-16T09:10:20.274Z,99461.19
2019-04-16T09:11:28.488Z,99472.58
2019-04-16T09:12:41.229Z,99463.53
2019-04-16T09:13:49.961Z,99457.23
2019-04-16T09:14:58.077Z,99449.12
2019-04-16T09:16:10.221Z,99447.67
2019-04-16T09:17:18.009Z,99450.48
2019-04-16T09:18:42.868Z,99448.07
2019-04-16T09:19:52.782Z,99435.52
2019-04-16T09:21:01.068Z,99440.35
2019-04-16T09:22:09.541Z,99442.80
2019-04-16T09:23:17.301Z,99445.50
2019-04-16T09:24:33.336Z,99448.28
2019-04-16T09:25:46.703Z,99442.73
2019-04-16T09:27:13.107Z,99453.15
2019-04-16T09:28:26.211Z,99449.66
2019-04-16T09:29:51.099Z,99450.27
2019-04-16T09:31:09.448Z,99448.72
2019-04-16T09:32:17.407Z,99448.83
2019-04-16T09:33:40.380Z,99439.87
2019-04-16T09:34:50.011Z,99437.95
2019-04-16T09:35:59.892Z,99441.48
2019-04-16T09:37:28.711Z,99449.27
2019-04-16T09:38:39.050Z,99449.14
2019-04-16T09:40:16.057Z,99448.93
2019-04-16T09:41:25.536Z,99450.86
2019-04-16T09:42:34.346Z,99441.67
2019-04-16T09:43:43.888Z,99442.88
2019-04-16T09:44:51.913Z,99448.80
2019-04-16T09:46:10.225Z,99442.50
2019-04-16T09:47:09.857Z,99443.61
2019-04-16T09:48:18.057Z,99443.00
2019-04-16T09:49:26.459Z,99450.78
2019-04-16T09:50:34.699Z,99452.70
2019-04-16T09:51:42.689Z,99452.82
2019-04-16T09:52:52.492Z,99445.31
2019-04-16T09:54:00.424Z,99440.33
2019-04-16T09:55:09.029Z,99440.95
2019-04-16T09:56:29.096Z,99446.66
2019-04-16T09:57:36.796Z,99441.55
2019-04-16T09:58:45.057Z,99430.66
2019-04-16T09:59:54.805Z,99438.77
2019-04-16T10:01:05.414Z,99442.42
2019-04-16T10:02:24.337Z,99441.68
2019-04-16T10:03:34.185Z,99439.87
2019-04-16T10:04:42.236Z,99441.44
2019-04-16T10:05:50.373Z,99436.72
2019-04-16T10:06:58.482Z,99431.03
2019-04-16T10:08:06.597Z,99433.67
2019-04-16T10:09:20.244Z,99423.71
2019-04-16T10:10:27.966Z,99432.83
2019-04-16T10:11:36.497Z,99438.63
2019-04-16T10:12:44.763Z,99434.12
2019-04-16T10:13:53.055Z,99431.09
2019-04-16T10:15:01.364Z,99429.84
2019-04-16T10:16:09.687Z,99427.77
2019-04-16T10:17:18.206Z,99423.55
2019-04-16T10:18:26.501Z,99419.37
2019-04-16T10:19:34.586Z,99430.10
2019-04-16T10:20:42.805Z,99428.58
2019-04-16T10:21:54.523Z,99426.07
2019-04-16T10:23:02.213Z,99421.51
2019-04-16T10:24:13.553Z,99421.16
2019-04-16T10:25:22.368Z,99418.88
2019-04-16T10:26:30.540Z,99415.79
2019-04-16T10:27:43.704Z,99410.97
2019-04-16T10:28:51.879Z,99400.02
2019-04-16T10:29:59.966Z,99413.01
2019-04-16T10:31:08.516Z,99416.27
2019-04-16T10:32:18.177Z,99411.00
2019-04-16T10:33:26.781Z,99418.02
2019-04-16T10:34:36.415Z,99407.64
2019-04-16T10:35:44.577Z,99405.20
2019-04-16T10:36:52.687Z,99409.13
2019-04-16T10:38:02.670Z,99408.67
2019-04-16T10:39:18.510Z,99411.91
2019-04-16T10:40:43.300Z,99409.20
2019-04-16T10:41:56.514Z,99403.23
2019-04-16T10:43:13.436Z,99383.85
2019-04-16T10:44:32.943Z,99408.62
2019-04-16T10:45:40.712Z,99405.53
2019-04-16T10:46:56.223Z,99395.77
2019-04-16T10:48:22.218Z,99398.79
2019-04-16T10:49:43.959Z,99392.75
2019-04-16T10:51:03.861Z,99395.32
2019-04-16T10:52:16.650Z,99388.67
2019-04-16T10:53:42.902Z,99387.94
2019-04-16T10:55:02.184Z,99389.96
2019-04-16T10:56:28.616Z,99387.67
2019-04-16T10:57:49.882Z,99385.35
2019-04-16T10:58:57.919Z,99390.28
2019-04-16T11:00:13.922Z,99378.39
2019-04-16T11:01:21.675Z,99379.45
2019-04-16T11:02:31.276Z,99375.67
2019-04-16T11:03:40.776Z,99373.93
2019-04-16T11:05:06.668Z,99373.33
2019-04-16T11:06:16.372Z,99361.44
2019-04-16T11:07:31.997Z,99371.25
2019-04-16T11:08:40.170Z,99365.55
2019-04-16T11:09:48.168Z,99378.03
2019-04-16T11:10:56.473Z,99375.02
2019-04-16T11:12:05.376Z,99372.34
2019-04-16T11:13:15.857Z,99365.48
2019-04-16T11:14:24.035Z,99366.99
2019-04-16T11:15:32.235Z,99364.83
2019-04-16T11:16:42.307Z,99370.73
2019-04-16T11:17:50.705Z,99370.73
2019-04-16T11:18:58.891Z,99364.83
2019-04-16T11:20:08.047Z,99360.11
2019-04-16T11:21:16.373Z,99365.36
2019-04-16T11:22:24.505Z,99367.69
2019-04-16T11:23:32.777Z,99362.47
2019-04-16T11:24:40.857Z,99360.63
2019-04-16T11:25:48.999Z,99362.80
2019-04-16T11:26:57.209Z,99355.69
2019-04-16T11:28:05.367Z,99362.59
2019-04-16T11:29:13.953Z,99355.52
2019-04-16T11:30:32.588Z,99351.77
2019-04-16T11:31:40.616Z,99357.64
2019-04-16T11:32:48.956Z,99351.33
2019-04-16T11:33:57.428Z,99356.98
2019-04-16T11:35:06.703Z,99347.45
2019-04-16T11:36:19.605Z,99351.72
2019-04-16T11:37:26.166Z,99350.10
2019-04-16T11:38:34.242Z,99352.41
2019-04-16T11:39:42.286Z,99350.66
2019-04-16T11:40:50.396Z,99353.27
2019-04-16T11:41:58.619Z,99349.81
2019-04-16T11:43:06.636Z,99352.77
2019-04-16T11:44:16.785Z,99351.66
2019-04-16T11:45:24.625Z,99349.36
2019-04-16T11:46:33.602Z,99341.80
2019-04-16T11:47:41.621Z,99334.89
2019-04-16T11:48:50.272Z,99346.21
2019-04-16T11:50:08.760Z,99339.86
2019-04-16T11:51:17.134Z,99345.83
2019-04-16T11:52:25.136Z,99345.30
2019-04-16T11:53:33.382Z,99343.86
2019-04-16T11:54:41.478Z,99345.30
2019-04-16T11:55:51.368Z,99333.33
2019-04-16T11:57:00.246Z,99329.63
2019-04-16T11:58:10.096Z,99336.41
2019-04-16T11:59:17.932Z,99334.75
2019-04-16T12:00:27.842Z,99334.14
2019-04-16T12:01:40.443Z,99338.33
2019-04-16T12:04:16.998Z,99331.26
2019-04-16T12:05:27.369Z,99329.09
2019-04-16T12:06:37.135Z,99328.37
2019-04-16T12:07:47.253Z,99322.55
2019-04-16T12:09:00.631Z,99318.37
2019-04-16T12:10:20.681Z,99319.52
2019-04-16T12:11:30.562Z,99314.62
2019-04-16T12:12:55.616Z,99310.86
2019-04-16T12:14:32.418Z,99315.00
2019-04-16T12:15:33.146Z,99304.85
2019-04-16T12:16:46.025Z,99303.16
2019-04-16T12:17:53.754Z,99304.52
2019-04-16T12:19:03.151Z,99308.36
2019-04-16T12:20:13.171Z,99302.23
2019-04-16T12:21:31.922Z,99297.22
2019-04-16T12:22:44.262Z,99302.64
2019-04-16T12:23:56.726Z,99291.52
2019-04-16T12:25:05.614Z,99301.94
2019-04-16T12:26:16.046Z,99297.94
2019-04-16T12:27:33.943Z,99293.50
2019-04-16T12:28:45.062Z,99295.31
2019-04-16T12:29:52.899Z,99287.44
2019-04-16T12:31:03.360Z,99284.41
2019-04-16T12:32:13.080Z,99280.57
2019-04-16T12:33:38.418Z,99283.73
2019-04-16T12:34:51.143Z,99287.63
2019-04-16T12:36:00.411Z,99286.41
2019-04-16T12:37:18.896Z,99287.72
2019-04-16T12:38:28.752Z,99283.44
2019-04-16T12:39:55.861Z,99281.83
2019-04-16T12:41:08.078Z,99287.30
2019-04-16T12:42:41.181Z,99286.26
2019-04-16T12:43:50.789Z,99286.75
2019-04-16T12:44:58.846Z,99280.47
2019-04-16T12:46:15.261Z,99289.27
2019-04-16T12:47:27.814Z,99288.12
2019-04-16T12:48:53.767Z,99285.09
2019-04-16T12:50:01.500Z,99284.37
2019-04-16T12:51:20.253Z,99280.29
2019-04-16T12:52:35.843Z,99280.69
2019-04-16T12:53:43.507Z,99274.72
2019-04-16T12:54:59.318Z,99269.17
2019-04-16T12:56:25.125Z,99279.64
2019-04-16T12:57:51.022Z,99274.19
2019-04-16T12:59:12.507Z,99272.83
2019-04-16T13:00:39.048Z,99265.28
2019-04-16T13:01:52.692Z,99272.73
2019-04-16T13:03:03.168Z,99274.61
2019-04-16T13:04:29.032Z,99267.17
2019-04-16T13:05:44.451Z,99269.87
2019-04-16T13:07:01.409Z,99270.04
2019-04-16T13:08:11.188Z,99265.72
2019-04-16T13:09:27.607Z,99262.27
2019-04-16T13:10:47.349Z,99262.44
2019-04-16T13:11:57.096Z,99259.53
2019-04-16T13:13:06.814Z,99260.03
2019-04-16T13:14:16.742Z,99258.17
2019-04-16T13:15:42.654Z,99261.06
2019-04-16T13:17:07.263Z,99257.06
2019-04-16T13:18:17.052Z,99251.16
2019-04-16T13:19:39.748Z,99253.94
2019-04-16T13:21:06.200Z,99248.67
2019-04-16T13:22:16.052Z,99245.69
2019-04-16T13:23:34.684Z,99249.52
2019-04-16T13:24:44.272Z,99254.33
2019-04-16T13:26:00.437Z,99249.25
2019-04-16T13:27:19.902Z,99248.08
2019-04-16T13:28:27.991Z,99243.21
2019-04-16T13:29:36.076Z,99246.37
2019-04-16T13:30:44.365Z,99242.61
2019-04-16T13:31:52.443Z,99245.39
2019-04-16T13:33:00.569Z,99240.61
2019-04-16T13:34:08.872Z,99246.70
2019-04-16T13:35:17.067Z,99246.23
2019-04-16T13:36:27.826Z,99249.19
2019-04-16T13:37:37.807Z,99244.98
2019-04-16T13:38:46.251Z,99246.59
2019-04-16T13:39:59.253Z,99243.73
2019-04-16T13:41:06.570Z,99236.28
2019-04-16T13:42:14.882Z,99232.83
2019-04-16T13:43:27.570Z,99240.23
2019-04-16T13:44:43.200Z,99239.11
2019-04-16T13:45:51.509Z,99237.25
2019-04-16T13:47:03.019Z,99235.95
2019-04-16T13:48:16.509Z,99229.44
2019-04-16T13:49:32.296Z,99230.95
2019-04-16T13:50:42.258Z,99226.88
2019-04-16T13:51:50.477Z,99224.72
2019-04-16T13:53:03.325Z,99230.50
2019-04-16T13:54:15.560Z,99229.16
2019-04-16T13:55:41.598Z,99221.40
2019-04-16T13:56:51.578Z,99225.50
2019-04-16T13:57:59.590Z,99230.14
2019-04-16T13:59:07.402Z,99229.55
2019-04-16T14:00:15.894Z,99224.08